Time;durP1;ratioP1;P1;durP2;ratioP2;P2;SDS_P1;SDS_P2;PMS_P1;PMS_P2;Temp;Humidity;BMP_temperature;BMP_pressure;BME280_temperature;BME280_humidity;BME280_pressure;Samples;Min_cycle;Max_cycle;Signal;HPM_P1;HPM_P2
2023/03/07 00:02:12;;;;;;;2.17;1.23;;;;;;;-1.98;65.79;98121.38;5064868;28;20416;-34
2023/03/07 00:04:38;;;;;;;2.15;1.15;;;;;;;-1.98;65.92;98123.94;5085711;28;20070;-35
2023/03/07 00:07:04;;;;;;;1.95;0.73;;;;;;;-2.03;65.73;98120.59;5079601;28;20036;-35
2023/03/07 00:09:30;;;;;;;1.38;0.65;;;;;;;-2.02;66.09;98119.72;5065085;28;20036;-35
2023/03/07 00:11:56;;;;;;;1.42;0.98;;;;;;;-2.06;65.93;98113.84;5076899;28;20048;-34
2023/03/07 00:14:22;;;;;;;2.60;1.52;;;;;;;-2.29;65.92;98091.13;5065770;28;20044;-36
2023/03/07 00:16:51;;;;;;;3.47;0.98;;;;;;;-2.17;66.17;98119.03;5072982;28;20563;-35
2023/03/07 00:19:17;;;;;;;2.42;1.00;;;;;;;-2.42;66.35;98084.47;5075087;28;20052;-34
2023/03/07 00:21:44;;;;;;;1.65;1.00;;;;;;;-2.30;66.39;98117.44;5066928;28;20443;-33
2023/03/07 00:24:10;;;;;;;1.88;0.80;;;;;;;-2.33;66.87;98111.53;5067843;28;20040;-34
2023/03/07 00:26:38;;;;;;;2.63;0.95;;;;;;;-2.31;66.65;98112.38;5067105;28;20423;-33
2023/03/07 00:29:06;;;;;;;3.60;1.02;;;;;;;-2.24;66.95;98117.38;5087760;28;20032;-36
2023/03/07 00:31:33;;;;;;;1.63;1.08;;;;;;;-2.22;66.66;98130.09;5069875;28;20044;-35
2023/03/07 00:33:59;;;;;;;1.05;0.75;;;;;;;-2.28;66.71;98125.91;5066772;28;20158;-35
2023/03/07 00:36:25;;;;;;;2.78;0.95;;;;;;;-2.45;66.73;98081.94;5072397;28;20134;-34
2023/03/07 00:38:52;;;;;;;1.67;1.00;;;;;;;-2.41;66.74;98086.16;5050197;28;20524;-35
2023/03/07 00:41:20;;;;;;;3.00;1.08;;;;;;;-2.24;67.13;98114.00;5067852;28;20052;-35
2023/03/07 00:43:46;;;;;;;2.38;1.70;;;;;;;-2.38;67.08;98091.22;5068468;28;20046;-35
2023/03/07 00:46:13;;;;;;;1.85;0.90;;;;;;;-2.18;67.30;98116.50;5063249;28;20048;-34
2023/03/07 00:48:39;;;;;;;4.30;1.33;;;;;;;-2.20;67.35;98124.13;5065574;28;20044;-35
2023/03/07 00:51:08;;;;;;;3.83;0.90;;;;;;;-2.52;67.52;98066.75;5065904;28;20994;-35
2023/03/07 00:53:34;;;;;;;2.45;1.45;;;;;;;-2.19;67.93;98112.25;5081580;28;20043;-33
2023/03/07 00:56:01;;;;;;;3.78;1.83;;;;;;;-2.18;68.03;98106.31;5082252;28;20036;-35
2023/03/07 00:58:31;;;;;;;0.90;0.80;;;;;;;-2.22;68.48;98105.50;5056044;28;20041;-34
2023/03/07 01:00:57;;;;;;;1.60;1.00;;;;;;;-2.23;69.42;98113.13;5073036;28;20539;-34
2023/03/07 01:03:24;;;;;;;3.42;1.35;;;;;;;-2.27;69.64;98102.16;5059211;28;20691;-35
2023/03/07 01:05:51;;;;;;;1.92;1.00;;;;;;;-2.28;70.79;98119.97;5067893;28;20179;-35
2023/03/07 01:08:17;;;;;;;3.83;1.48;;;;;;;-2.33;71.47;98102.19;5068882;28;20051;-34
2023/03/07 01:10:44;;;;;;;2.35;1.17;;;;;;;-2.29;71.63;98105.56;5047534;28;20086;-34
2023/03/07 01:13:11;;;;;;;3.08;1.30;;;;;;;-2.29;72.01;98108.94;5089360;28;20043;-35
2023/03/07 01:15:37;;;;;;;2.55;1.25;;;;;;;-2.42;72.51;98101.44;5065621;28;20041;-34
2023/03/07 01:18:05;;;;;;;2.95;1.58;;;;;;;-2.58;72.43;98082.91;5040503;28;20497;-34
2023/03/07 01:20:32;;;;;;;4.32;2.00;;;;;;;-2.78;73.18;98060.19;5081910;28;20036;-35
2023/03/07 01:22:59;;;;;;;1.30;0.60;;;;;;;-2.56;73.64;98106.63;5079539;28;20041;-34
2023/03/07 01:25:25;;;;;;;5.47;1.17;;;;;;;-2.59;73.48;98106.66;5082939;28;20040;-34
2023/03/07 01:27:54;;;;;;;1.52;0.93;;;;;;;-2.59;73.50;98106.66;5067932;28;20040;-35
2023/03/07 01:30:22;;;;;;;1.75;1.00;;;;;;;-2.79;73.18;98071.22;5066471;28;20075;-36
2023/03/07 01:32:55;;;;;;;5.07;1.02;;;;;;;-2.60;73.13;98110.91;5063538;28;20070;-33
2023/03/07 01:35:22;;;;;;;5.13;1.65;;;;;;;-2.63;72.95;98112.63;5034828;28;20123;-34
2023/03/07 01:37:49;;;;;;;3.92;1.30;;;;;;;-2.74;72.67;98107.63;5068290;28;20102;-36
2023/03/07 01:40:15;;;;;;;2.67;1.30;;;;;;;-2.77;73.04;98127.13;5050365;28;20130;-35
2023/03/07 01:42:41;;;;;;;4.13;0.88;;;;;;;-2.79;73.16;98114.44;5058532;28;20047;-34
2023/03/07 01:45:33;;;;;;;2.60;1.17;;;;;;;-2.81;73.70;98118.69;5044861;28;20052;-34
2023/03/07 01:47:59;;;;;;;2.22;0.88;;;;;;;-2.79;73.25;98116.97;5064934;28;20071;-35
2023/03/07 01:50:26;;;;;;;2.65;1.23;;;;;;;-2.75;73.09;98121.19;5067540;28;20790;-35
2023/03/07 01:52:54;;;;;;;1.17;0.82;;;;;;;-2.70;72.87;98116.06;5069533;28;20090;-34
2023/03/07 01:55:26;;;;;;;2.15;0.85;;;;;;;-2.65;72.47;98111.78;5076310;28;20089;-34
2023/03/07 01:57:58;;;;;;;1.40;0.88;;;;;;;-2.63;72.40;98107.53;5069247;28;20036;-34
2023/03/07 02:00:28;;;;;;;2.88;1.42;;;;;;;-2.52;72.29;98110.84;5035535;28;20646;-36
2023/03/07 02:03:03;;;;;;;2.10;0.93;;;;;;;-2.50;72.06;98123.53;5050318;28;20051;-35
2023/03/07 02:05:34;;;;;;;1.80;0.95;;;;;;;-2.60;72.34;98094.78;5069218;28;20036;-35
2023/03/07 02:08:01;;;;;;;2.78;1.35;;;;;;;-2.52;72.42;98115.09;5047441;28;20044;-36
2023/03/07 02:10:30;;;;;;;5.72;1.50;;;;;;;-2.48;72.06;98120.16;5068507;28;20052;-34
2023/03/07 02:12:56;;;;;;;2.03;1.23;;;;;;;-2.49;71.96;98115.06;5067063;28;20411;-34
2023/03/07 02:15:23;;;;;;;2.60;1.00;;;;;;;-2.52;71.68;98115.94;5069460;28;20058;-35
2023/03/07 02:17:49;;;;;;;0.50;0.40;;;;;;;-2.53;71.76;98114.25;5050274;28;20428;-35
2023/03/07 02:20:27;;;;;;;2.15;0.80;;;;;;;-2.51;71.88;98120.16;5053373;28;20157;-35
2023/03/07 02:22:53;;;;;;;1.10;0.70;;;;;;;-2.48;71.64;98116.75;5084300;28;20741;-36
2023/03/07 02:25:39;;;;;;;7.55;2.28;;;;;;;-2.52;72.00;98112.56;5053306;28;20040;-39
2023/03/07 02:28:08;;;;;;;1.67;0.95;;;;;;;-2.49;71.81;98122.69;5069948;28;20071;-36
2023/03/07 02:30:36;;;;;;;1.20;0.90;;;;;;;-2.67;71.67;98096.53;5050181;28;20161;-39
2023/03/07 02:33:02;;;;;;;4.70;1.65;;;;;;;-2.57;71.77;98107.50;5063124;28;20037;-37
2023/03/07 02:35:28;;;;;;;4.03;1.40;;;;;;;-2.59;71.58;98109.19;5086520;28;20047;-36
2023/03/07 02:38:02;;;;;;;1.23;0.82;;;;;;;-2.61;71.84;98118.53;5066980;28;20049;-38
2023/03/07 02:40:29;;;;;;;1.40;0.73;;;;;;;-2.61;71.72;98118.53;5035113;28;20083;-40
2023/03/07 02:42:58;;;;;;;2.35;1.10;;;;;;;-2.64;71.65;98109.25;5051871;28;20480;-39
2023/03/07 02:45:24;;;;;;;1.55;0.80;;;;;;;-2.63;72.08;98112.63;5069761;28;20033;-39
2023/03/07 02:47:51;;;;;;;5.05;1.98;;;;;;;-2.63;71.80;98113.47;5070892;28;20076;-37
2023/03/07 02:50:17;;;;;;;2.55;1.27;;;;;;;-2.64;71.68;98104.16;5070698;28;20036;-39
2023/03/07 02:52:48;;;;;;;2.08;1.13;;;;;;;-2.65;71.74;98109.25;5069074;28;20048;-39
2023/03/07 02:55:15;;;;;;;3.33;1.27;;;;;;;-2.70;71.71;98104.19;5069996;28;20040;-35
2023/03/07 02:57:47;;;;;;;4.00;0.75;;;;;;;-2.89;72.12;98074.69;5084567;28;20075;-42
2023/03/07 03:00:13;;;;;;;4.75;1.55;;;;;;;-2.73;72.07;98113.56;5067100;28;20079;-40
2023/03/07 03:02:39;;;;;;;3.20;1.80;;;;;;;-2.75;72.01;98115.25;5073012;28;20040;-39
2023/03/07 03:05:06;;;;;;;3.75;1.50;;;;;;;-2.75;72.26;98112.72;5060032;28;20046;-38
2023/03/07 03:07:32;;;;;;;4.00;1.85;;;;;;;-2.80;72.36;98115.28;5073148;28;20051;-39
2023/03/07 03:09:59;;;;;;;7.97;2.90;;;;;;;-2.80;72.52;98114.44;5080755;28;20122;-39
2023/03/07 03:12:25;;;;;;;4.20;1.58;;;;;;;-2.78;72.35;98112.75;5054117;28;20119;-44
2023/03/07 03:14:51;;;;;;;8.18;2.15;;;;;;;-2.79;72.46;98114.44;5082321;28;20040;-40
2023/03/07 03:17:17;;;;;;;3.90;1.17;;;;;;;-2.85;72.52;98104.31;5075513;28;20457;-38
2023/03/07 03:19:43;;;;;;;3.75;1.45;;;;;;;-3.12;72.48;98061.25;5076715;28;20036;-38
2023/03/07 03:22:09;;;;;;;1.33;0.80;;;;;;;-2.80;72.42;98107.66;5058290;28;20053;-42
2023/03/07 03:24:40;;;;;;;3.28;1.42;;;;;;;-2.80;72.62;98127.16;5068254;28;20045;-37
2023/03/07 03:27:07;;;;;;;3.15;1.40;;;;;;;-2.84;72.69;98116.16;5066555;28;20477;-39
2023/03/07 03:29:33;;;;;;;4.38;1.98;;;;;;;-2.83;72.60;98124.63;5066840;28;20046;-39
2023/03/07 03:32:02;;;;;;;1.67;1.10;;;;;;;-2.82;72.42;98111.03;5070856;28;20043;-39
2023/03/07 03:34:28;;;;;;;4.10;1.60;;;;;;;-2.83;72.47;98122.94;5056200;28;20040;-40
2023/03/07 03:36:54;;;;;;;2.00;0.98;;;;;;;-2.84;72.41;98117.88;5050568;28;20536;-38
2023/03/07 03:39:21;;;;;;;1.23;0.90;;;;;;;-3.02;72.62;98101.00;5086829;28;20051;-36
2023/03/07 03:41:51;;;;;;;5.07;1.17;;;;;;;-2.89;72.70;98122.97;5054490;28;20126;-38
2023/03/07 03:44:20;;;;;;;3.20;1.67;;;;;;;-2.92;72.74;98124.69;5054441;28;20045;-38
2023/03/07 03:46:47;;;;;;;5.30;1.90;;;;;;;-2.94;72.41;98119.63;5076523;28;20040;-41
2023/03/07 03:49:15;;;;;;;9.18;1.67;;;;;;;-3.10;72.82;98110.41;5065864;28;20534;-41
2023/03/07 03:51:42;;;;;;;2.38;1.20;;;;;;;-2.94;72.78;98116.22;5074747;28;20135;-43
2023/03/07 03:54:08;;;;;;;2.63;1.25;;;;;;;-2.96;72.97;98125.56;5078724;28;20172;-42
2023/03/07 03:56:35;;;;;;;2.83;1.35;;;;;;;-3.05;73.02;98124.75;5071363;28;20504;-39
2023/03/07 03:59:01;;;;;;;2.75;1.10;;;;;;;-3.06;72.76;98135.78;5065959;28;20531;-39
2023/03/07 04:01:28;;;;;;;2.60;1.33;;;;;;;-3.09;73.12;98123.06;5065181;28;20090;-43
2023/03/07 04:03:55;;;;;;;2.92;1.42;;;;;;;-3.06;72.76;98130.69;5051026;28;20040;-41
2023/03/07 04:06:24;;;;;;;2.13;1.40;;;;;;;-3.07;73.05;98146.78;5073598;28;20036;-38
2023/03/07 04:08:51;;;;;;;4.93;2.05;;;;;;;-3.13;72.79;98123.09;5071592;28;20097;-38
2023/03/07 04:11:19;;;;;;;4.10;1.35;;;;;;;-3.10;72.95;98134.13;5079833;28;20065;-40
2023/03/07 04:13:45;;;;;;;4.45;1.83;;;;;;;-3.06;73.11;98147.63;5066473;28;20078;-38
2023/03/07 04:16:12;;;;;;;4.93;1.30;;;;;;;-3.07;72.58;98139.16;5070749;28;20036;-39
2023/03/07 04:18:38;;;;;;;2.78;1.23;;;;;;;-3.11;72.86;98140.03;5056108;28;20070;-43
2023/03/07 04:21:05;;;;;;;4.75;1.58;;;;;;;-3.13;73.20;98140.88;5059567;28;20090;-41
2023/03/07 04:23:31;;;;;;;3.78;1.73;;;;;;;-3.32;72.88;98101.19;5065621;28;20044;-41
2023/03/07 04:25:59;;;;;;;6.78;1.65;;;;;;;-3.13;73.22;98129.03;5070546;28;20119;-41
2023/03/07 04:28:43;;;;;;;3.03;1.55;;;;;;;-3.12;73.15;98138.34;5068161;28;20048;-41
2023/03/07 04:31:16;;;;;;;3.88;1.42;;;;;;;-3.13;73.19;98146.81;5056911;28;20115;-40
2023/03/07 04:33:44;;;;;;;2.47;1.30;;;;;;;-3.15;72.78;98153.63;5066438;28;20051;-41
2023/03/07 04:36:11;;;;;;;6.72;1.65;;;;;;;-3.12;72.97;98145.97;5069484;28;20139;-38
2023/03/07 04:38:38;;;;;;;3.08;1.30;;;;;;;-3.05;72.71;98147.63;5032209;28;20044;-44
2023/03/07 04:41:05;;;;;;;5.03;1.65;;;;;;;-3.07;72.43;98141.72;5065971;28;20516;-40
2023/03/07 04:43:31;;;;;;;2.75;1.50;;;;;;;-3.10;72.65;98146.81;5076369;28;20079;-42
2023/03/07 04:45:58;;;;;;;3.17;1.52;;;;;;;-3.10;72.77;98149.38;5064073;28;20464;-42
2023/03/07 04:48:24;;;;;;;1.98;0.90;;;;;;;-3.08;72.32;98141.72;5066252;28;20047;-39
2023/03/07 04:50:51;;;;;;;2.35;1.40;;;;;;;-3.11;72.33;98157.84;5067976;28;20047;-45
2023/03/07 04:53:18;;;;;;;4.80;1.35;;;;;;;-3.10;72.23;98164.59;5030959;28;20461;-42
2023/03/07 04:55:44;;;;;;;3.08;1.13;;;;;;;-3.12;72.17;98158.69;5063660;28;20261;-41
2023/03/07 04:58:12;;;;;;;2.17;1.00;;;;;;;-3.04;72.51;98154.41;5094862;28;20040;-46
2023/03/07 05:00:43;;;;;;;4.80;1.90;;;;;;;-3.00;72.01;98145.91;5065146;28;20062;-44
2023/03/07 05:03:11;;;;;;;6.65;1.65;;;;;;;-2.88;72.15;98156.88;5065889;28;20048;-45
2023/03/07 05:05:37;;;;;;;4.13;1.95;;;;;;;-2.86;71.84;98152.59;5055359;28;20033;-48
2023/03/07 05:08:04;;;;;;;3.05;1.67;;;;;;;-2.87;71.65;98167.00;5067643;28;20044;-43
2023/03/07 05:10:34;;;;;;;2.03;1.38;;;;;;;-2.95;71.47;98161.16;5035909;28;20101;-44
2023/03/07 05:13:02;;;;;;;4.45;1.63;;;;;;;-2.92;71.63;98165.34;5052369;28;20052;-39
2023/03/07 05:15:29;;;;;;;7.75;1.65;;;;;;;-2.90;71.49;98169.59;5064385;28;20039;-46
2023/03/07 05:17:55;;;;;;;5.70;1.83;;;;;;;-3.06;71.18;98150.19;5037348;28;20060;-43
2023/03/07 05:20:22;;;;;;;3.30;1.63;;;;;;;-2.98;71.00;98160.31;5065019;28;20517;-46
2023/03/07 05:22:48;;;;;;;3.03;1.52;;;;;;;-2.85;71.12;98180.56;5047730;28;20044;-44
2023/03/07 05:25:15;;;;;;;2.63;1.67;;;;;;;-2.85;71.13;98185.66;5070504;28;20118;-37
2023/03/07 05:27:42;;;;;;;6.18;1.35;;;;;;;-2.73;70.69;98189.84;5078890;28;20074;-36
2023/03/07 05:30:09;;;;;;;5.15;1.98;;;;;;;-2.74;70.70;98183.06;5078244;28;20454;-37
2023/03/07 05:32:35;;;;;;;7.53;3.35;;;;;;;-2.65;70.85;98193.16;5070431;28;20044;-37
2023/03/07 05:35:02;;;;;;;4.43;2.25;;;;;;;-2.54;70.68;98177.84;5053020;28;20048;-36
2023/03/07 05:37:29;;;;;;;4.35;1.95;;;;;;;-2.58;70.28;98205.84;5071674;28;20055;-37
2023/03/07 05:39:55;;;;;;;4.15;2.13;;;;;;;-2.58;69.83;98190.59;5072625;28;20040;-38
2023/03/07 05:42:21;;;;;;;3.60;2.03;;;;;;;-2.54;69.54;98198.19;5089770;28;20044;-36
2023/03/07 05:44:48;;;;;;;4.80;2.10;;;;;;;-2.77;70.08;98152.53;5084190;28;20047;-36
2023/03/07 05:47:14;;;;;;;4.50;2.22;;;;;;;-2.51;69.53;98198.19;5044350;28;20070;-37
2023/03/07 05:49:40;;;;;;;3.63;1.75;;;;;;;-2.73;69.59;98170.34;5072062;28;20036;-37
2023/03/07 05:52:07;;;;;;;6.30;1.83;;;;;;;-2.57;69.34;98199.91;5046825;28;20131;-36
2023/03/07 05:54:33;;;;;;;7.80;2.55;;;;;;;-2.49;69.39;98196.47;5066513;28;20045;-38
2023/03/07 05:56:59;;;;;;;5.45;2.22;;;;;;;-2.37;69.52;98194.69;5076480;28;20040;-37
2023/03/07 05:59:25;;;;;;;6.70;2.17;;;;;;;-2.26;69.23;98189.53;5073819;28;20045;-38
2023/03/07 06:01:51;;;;;;;5.95;2.42;;;;;;;-2.21;68.94;98188.66;5060824;28;20056;-36
2023/03/07 06:04:18;;;;;;;4.43;1.40;;;;;;;-2.13;68.87;98196.19;5071385;28;20567;-37
2023/03/07 06:06:43;;;;;;;5.95;2.38;;;;;;;-2.19;68.56;98196.25;5075698;28;20511;-37
2023/03/07 06:09:10;;;;;;;5.78;2.85;;;;;;;-2.07;68.65;98198.69;5074884;28;20051;-37
2023/03/07 06:11:38;;;;;;;7.13;2.75;;;;;;;-1.93;68.34;98190.94;5029847;28;20143;-37
2023/03/07 06:14:03;;;;;;;2.47;1.10;;;;;;;-2.14;67.61;98144.44;5058904;28;20134;-39
2023/03/07 06:16:30;;;;;;;2.42;1.40;;;;;;;-2.03;67.59;98191.88;5070458;28;20601;-38
2023/03/07 06:18:59;;;;;;;5.65;2.47;;;;;;;-1.88;67.26;98209.56;5063128;28;20619;-38
2023/03/07 06:21:25;;;;;;;8.27;2.38;;;;;;;-1.87;67.20;98176.47;5054867;28;20825;-42
2023/03/07 06:23:51;;;;;;;5.55;2.28;;;;;;;-1.24;66.52;98219.97;5075756;28;20093;-35
2023/03/07 06:26:20;;;;;;;5.25;2.03;;;;;;;-0.84;65.58;98222.94;5061503;28;20139;-37
2023/03/07 06:28:50;;;;;;;6.53;2.28;;;;;;;-1.05;65.01;98207.88;5075149;28;20070;-37
2023/03/07 06:31:18;;;;;;;4.53;2.00;;;;;;;-1.11;64.99;98218.16;5075452;28;20059;-37
2023/03/07 06:33:46;;;;;;;4.30;2.22;;;;;;;-1.19;64.99;98219.91;5077632;28;20102;-36
2023/03/07 06:36:16;;;;;;;2.72;1.63;;;;;;;-1.41;65.22;98221.84;5059043;28;20033;-37
2023/03/07 06:38:45;;;;;;;5.15;2.22;;;;;;;-1.49;65.46;98241.50;5055903;28;20056;-36
2023/03/07 06:41:11;;;;;;;3.70;1.90;;;;;;;-1.79;65.19;98192.53;5042685;28;20072;-39
2023/03/07 06:43:37;;;;;;;7.03;2.50;;;;;;;-1.90;65.44;98199.41;5084148;28;20040;-36
2023/03/07 06:46:05;;;;;;;8.30;2.28;;;;;;;-1.68;65.40;98211.97;5068849;28;20465;-37
2023/03/07 06:48:34;;;;;;;4.35;2.33;;;;;;;-1.44;65.29;98234.63;5049953;28;20036;-37
2023/03/07 06:51:07;;;;;;;2.47;1.55;;;;;;;-1.42;65.11;98236.31;5074875;28;20200;-37
2023/03/07 06:53:33;;;;;;;6.07;2.15;;;;;;;-1.25;64.82;98231.03;5048524;28;20116;-36
2023/03/07 06:56:01;;;;;;;5.80;2.30;;;;;;;-1.19;64.75;98237.78;5051055;28;20060;-37
2023/03/07 06:58:27;;;;;;;7.72;2.72;;;;;;;-1.16;64.26;98217.34;5052805;28;20462;-36
2023/03/07 07:00:53;;;;;;;7.25;2.20;;;;;;;-0.98;64.26;98227.31;5068401;28;20044;-37
2023/03/07 07:03:20;;;;;;;6.28;3.03;;;;;;;-0.41;63.51;98235.94;5064329;28;20044;-37
2023/03/07 07:05:47;;;;;;;4.50;1.80;;;;;;;0.37;61.80;98210.00;5056537;28;20037;-38
2023/03/07 07:08:13;;;;;;;5.88;2.42;;;;;;;1.82;59.03;98238.69;5056396;28;20048;-37
2023/03/07 07:10:40;;;;;;;2.60;1.77;;;;;;;1.43;57.54;98253.19;5039585;28;20056;-37
2023/03/07 07:13:06;;;;;;;6.20;2.38;;;;;;;1.24;58.54;98242.50;5067187;28;20048;-37
2023/03/07 07:15:32;;;;;;;5.70;2.50;;;;;;;1.05;58.07;98254.78;5091161;28;20044;-36
2023/03/07 07:17:59;;;;;;;7.85;3.33;;;;;;;0.38;58.39;98238.13;5065498;28;20041;-37
2023/03/07 07:20:25;;;;;;;6.07;2.75;;;;;;;0.07;59.22;98231.81;5068995;28;20488;-37
2023/03/07 07:22:52;;;;;;;7.07;2.80;;;;;;;0.01;59.61;98234.47;5083065;28;20124;-36
2023/03/07 07:25:19;;;;;;;7.25;3.00;;;;;;;0.00;59.78;98205.53;5085185;28;20040;-37
2023/03/07 07:27:45;;;;;;;5.78;3.25;;;;;;;0.17;60.02;98227.41;5084391;28;20051;-35
2023/03/07 07:30:12;;;;;;;8.43;2.80;;;;;;;0.05;59.60;98219.97;5085078;28;20135;-39
2023/03/07 07:32:39;;;;;;;6.57;1.75;;;;;;;-0.10;59.66;98210.78;5068341;28;20071;-36
2023/03/07 07:35:05;;;;;;;3.97;2.08;;;;;;;0.02;59.73;98238.72;5067925;28;20040;-36
2023/03/07 07:37:31;;;;;;;6.95;1.95;;;;;;;-0.12;59.82;98228.72;5069200;28;20102;-37
2023/03/07 07:39:57;;;;;;;4.78;2.25;;;;;;;-0.13;60.12;98250.00;5048120;28;20516;-37
2023/03/07 07:42:24;;;;;;;4.72;2.70;;;;;;;-0.27;60.12;98243.41;5050483;28;20059;-36
2023/03/07 07:45:03;;;;;;;6.35;3.00;;;;;;;-0.08;60.47;98239.72;5066435;28;20049;-37
2023/03/07 07:47:30;;;;;;;11.18;3.10;;;;;;;0.24;60.28;98240.06;5068097;28;20059;-36
2023/03/07 07:49:56;;;;;;;5.97;2.90;;;;;;;0.46;59.74;98237.16;5065446;28;20503;-35
2023/03/07 07:52:22;;;;;;;5.72;2.72;;;;;;;0.56;58.87;98233.56;5084860;28;20036;-39
2023/03/07 07:54:50;;;;;;;3.60;2.28;;;;;;;0.55;58.75;98239.53;5049118;28;20500;-36
2023/03/07 07:57:16;;;;;;;3.83;2.05;;;;;;;0.64;58.66;98242.78;5034003;28;20511;-40
2023/03/07 07:59:43;;;;;;;5.82;2.65;;;;;;;1.02;57.41;98200.28;5054087;28;20863;-36
2023/03/07 08:02:12;;;;;;;5.60;2.88;;;;;;;2.27;56.06;98237.59;5050600;28;20066;-36
2023/03/07 08:04:38;;;;;;;6.82;3.10;;;;;;;3.53;54.19;98239.31;5048729;28;20131;-37
2023/03/07 08:07:05;;;;;;;8.05;2.83;;;;;;;3.54;53.42;98248.72;5067653;28;20430;-38
2023/03/07 08:09:31;;;;;;;6.97;2.83;;;;;;;4.74;51.38;98234.59;5066526;28;20043;-36
2023/03/07 08:12:11;;;;;;;8.73;3.35;;;;;;;4.86;50.12;98230.75;5061475;28;20138;-36
2023/03/07 08:14:38;;;;;;;8.18;3.80;;;;;;;4.41;50.21;98226.25;5067289;28;20040;-39
2023/03/07 08:17:04;;;;;;;8.77;3.88;;;;;;;4.29;50.15;98236.13;5066201;28;20126;-37
2023/03/07 08:19:30;;;;;;;8.63;3.65;;;;;;;4.18;49.98;98236.47;5065865;28;20120;-36
2023/03/07 08:21:56;;;;;;;5.65;3.05;;;;;;;4.56;49.09;98232.63;5067228;28;20532;-37
2023/03/07 08:24:22;;;;;;;5.88;3.20;;;;;;;4.60;48.41;98231.66;5066411;28;20047;-37
2023/03/07 08:26:47;;;;;;;5.60;2.85;;;;;;;5.95;47.34;98229.31;5067584;28;20523;-36
2023/03/07 08:29:13;;;;;;;9.43;4.15;;;;;;;6.28;45.30;98229.72;5067691;28;20405;-37
2023/03/07 08:31:43;;;;;;;6.15;3.35;;;;;;;6.50;45.56;98194.34;5069027;28;20032;-35
2023/03/07 08:34:09;;;;;;;6.60;3.75;;;;;;;7.38;44.16;98205.19;5065947;28;20062;-36
2023/03/07 08:36:35;;;;;;;9.32;3.33;;;;;;;8.86;42.10;98223.06;5067321;28;20072;-36
2023/03/07 08:39:01;;;;;;;7.70;3.35;;;;;;;8.61;41.13;98220.88;5066761;28;20747;-37
2023/03/07 08:41:27;;;;;;;7.90;3.50;;;;;;;8.81;40.80;98214.66;5067440;28;20043;-36
2023/03/07 08:43:53;;;;;;;7.50;3.47;;;;;;;10.22;40.19;98211.44;5066906;28;20036;-37
2023/03/07 08:46:19;;;;;;;6.85;3.63;;;;;;;10.22;38.59;98227.00;5050417;28;20534;-36
2023/03/07 08:48:45;;;;;;;8.73;4.03;;;;;;;10.54;37.94;98213.03;5067930;28;20047;-36
2023/03/07 08:51:14;;;;;;;6.00;3.78;;;;;;;11.02;37.20;98217.13;5067149;28;20036;-37
2023/03/07 08:53:42;;;;;;;5.93;3.33;;;;;;;11.41;36.55;98216.47;5068457;28;20063;-38
2023/03/07 08:56:09;;;;;;;6.18;3.78;;;;;;;11.77;34.94;98223.84;5068855;28;20036;-35
2023/03/07 08:58:35;;;;;;;9.48;4.43;;;;;;;12.24;34.36;98206.03;5066977;28;20075;-38
2023/03/07 09:01:02;;;;;;;7.55;4.45;;;;;;;13.18;33.37;98222.38;5068190;28;20060;-37
2023/03/07 09:03:28;;;;;;;7.60;4.10;;;;;;;12.84;33.33;98215.97;5067861;28;20036;-38
2023/03/07 09:05:54;;;;;;;7.50;4.13;;;;;;;12.65;32.90;98202.47;5068543;28;20040;-36
2023/03/07 09:08:20;;;;;;;9.75;3.90;;;;;;;12.86;32.69;98193.22;5066490;28;20055;-38
2023/03/07 09:10:46;;;;;;;7.28;4.07;;;;;;;14.05;31.62;98203.19;5067116;28;20075;-37
2023/03/07 09:13:13;;;;;;;6.30;3.63;;;;;;;14.82;30.15;98197.47;5066158;28;20456;-37
2023/03/07 09:15:39;;;;;;;9.35;4.95;;;;;;;14.11;30.01;98205.38;5067408;28;20076;-38
2023/03/07 09:18:06;;;;;;;8.75;4.72;;;;;;;13.99;30.07;98207.91;5068192;28;20117;-37
2023/03/07 09:20:32;;;;;;;9.10;4.28;;;;;;;14.41;30.13;98196.16;5068273;28;20283;-37
2023/03/07 09:22:58;;;;;;;7.30;4.10;;;;;;;13.66;29.53;98192.03;5066251;28;21565;-36
2023/03/07 09:25:24;;;;;;;10.52;3.65;;;;;;;12.31;30.97;98215.09;5033092;28;20040;-37
2023/03/07 09:27:52;;;;;;;9.10;5.10;;;;;;;12.53;31.16;98201.50;5066540;28;20423;-37
2023/03/07 09:30:18;;;;;;;8.88;4.80;;;;;;;12.79;30.50;98176.31;5067993;28;20500;-37
2023/03/07 09:32:44;;;;;;;7.80;4.05;;;;;;;13.33;29.66;98197.00;5066765;28;20037;-42
2023/03/07 09:35:10;;;;;;;9.95;5.40;;;;;;;13.57;29.42;98195.28;5067776;28;20583;-37
2023/03/07 09:37:37;;;;;;;10.30;5.45;;;;;;;15.18;28.70;98185.97;5066825;28;20044;-37
2023/03/07 09:40:06;;;;;;;8.70;4.47;;;;;;;13.82;28.54;98195.22;5067588;28;20543;-36
2023/03/07 09:42:46;;;;;;;6.80;3.75;;;;;;;13.79;29.05;98197.22;5066895;28;20040;-36
2023/03/07 09:45:33;;;;;;;8.90;4.90;;;;;;;14.08;28.32;98197.78;5049417;28;20151;-38
2023/03/07 09:48:14;;;;;;;9.32;4.55;;;;;;;14.40;28.00;98204.13;5067114;28;20048;-40
2023/03/07 09:50:50;;;;;;;8.02;5.00;;;;;;;13.62;28.38;98190.56;5068473;28;20043;-37
2023/03/07 09:53:36;;;;;;;8.23;4.70;;;;;;;14.21;28.00;98194.16;5066052;28;20078;-38
2023/03/07 09:56:06;;;;;;;7.97;4.30;;;;;;;14.83;27.39;98186.91;5066797;28;20060;-37
2023/03/07 09:58:32;;;;;;;8.02;4.90;;;;;;;15.25;26.69;98155.78;5066853;28;20124;-38
2023/03/07 10:01:00;;;;;;;5.00;2.63;;;;;;;16.00;26.17;98198.72;5068014;28;20036;-36
2023/03/07 10:03:32;;;;;;;8.93;4.40;;;;;;;15.16;26.56;98193.97;5067009;28;20459;-37
2023/03/07 10:06:15;;;;;;;5.97;3.60;;;;;;;14.59;26.60;98183.53;5063120;28;20047;-37
2023/03/07 10:08:41;;;;;;;5.78;3.33;;;;;;;14.68;26.81;98176.75;5051191;28;20032;-38
2023/03/07 10:11:07;;;;;;;6.57;3.53;;;;;;;15.11;26.23;98169.09;5066238;28;20102;-37
2023/03/07 10:13:48;;;;;;;6.22;4.05;;;;;;;15.06;26.29;98184.34;5068789;28;20044;-38
2023/03/07 10:16:30;;;;;;;8.55;4.50;;;;;;;14.81;26.16;98177.53;5070886;28;20114;-37
2023/03/07 10:19:36;;;;;;;7.25;4.15;;;;;;;15.45;25.68;98183.84;5069206;28;20064;-37
2023/03/07 10:22:03;;;;;;;6.40;4.30;;;;;;;15.48;25.87;98173.16;5070043;28;20040;-37
2023/03/07 10:24:37;;;;;;;7.88;4.45;;;;;;;15.25;25.56;98161.84;5069445;28;20447;-37
2023/03/07 10:27:11;;;;;;;7.53;3.92;;;;;;;14.55;26.56;98163.75;5071112;28;20127;-38
2023/03/07 10:29:52;;;;;;;6.25;3.78;;;;;;;13.01;27.55;98160.03;5068736;28;20214;-37
2023/03/07 10:32:36;;;;;;;6.10;4.15;;;;;;;13.88;27.19;98158.22;5053179;28;20678;-38
2023/03/07 10:35:14;;;;;;;6.88;3.55;;;;;;;14.13;26.56;98169.53;5071123;28;20420;-38
2023/03/07 10:37:52;;;;;;;4.75;2.92;;;;;;;13.40;27.25;98159.06;5070952;28;20071;-38
2023/03/07 10:40:40;;;;;;;6.88;4.32;;;;;;;13.26;27.27;98160.06;5068441;28;20040;-38
2023/03/07 10:43:06;;;;;;;8.00;3.83;;;;;;;11.65;28.47;98123.88;5069665;28;20052;-38
2023/03/07 10:45:32;;;;;;;5.40;2.95;;;;;;;10.87;29.86;98155.66;5071121;28;20392;-37
2023/03/07 10:48:15;;;;;;;7.78;3.95;;;;;;;8.92;31.97;98151.03;5070929;28;20051;-37
2023/03/07 10:51:02;;;;;;;10.25;4.80;;;;;;;8.30;33.44;98137.84;5068404;28;20072;-36
2023/03/07 10:53:31;;;;;;;10.75;5.35;;;;;;;8.26;33.62;98134.53;5069241;28;20055;-38
2023/03/07 10:56:08;;;;;;;11.25;5.55;;;;;;;8.03;34.12;98137.41;5068889;28;20055;-36
2023/03/07 10:58:34;;;;;;;7.90;4.28;;;;;;;7.36;35.15;98142.34;5068783;28;20121;-36
2023/03/07 11:01:12;;;;;;;8.05;3.30;;;;;;;6.99;35.50;98133.69;5069800;28;20507;-37
2023/03/07 11:03:45;;;;;;;6.63;3.35;;;;;;;6.43;36.29;98136.16;5070144;28;20136;-37
2023/03/07 11:06:36;;;;;;;8.25;4.05;;;;;;;5.81;37.55;98128.41;5069012;28;20049;-36
2023/03/07 11:09:30;;;;;;;8.15;3.50;;;;;;;5.65;37.04;98138.50;5068148;28;20060;-37
2023/03/07 11:12:12;;;;;;;7.30;3.80;;;;;;;5.67;37.52;98100.59;5059675;28;20071;-38
2023/03/07 11:14:57;;;;;;;6.85;3.70;;;;;;;5.72;37.05;98115.88;5069117;28;20090;-36
2023/03/07 11:17:39;;;;;;;4.57;2.90;;;;;;;5.52;36.83;98132.13;5069165;28;20036;-36
2023/03/07 11:20:25;;;;;;;6.85;3.13;;;;;;;5.35;37.06;98137.91;5067885;28;20059;-38
2023/03/07 11:23:30;;;;;;;4.68;1.75;;;;;;;5.75;36.13;98118.34;5068634;28;20139;-36
2023/03/07 11:26:13;;;;;;;5.80;2.78;;;;;;;4.95;37.34;98135.16;5027203;28;20495;-38
2023/03/07 11:28:40;;;;;;;6.13;3.05;;;;;;;4.52;37.83;98148.72;5067472;28;20829;-36
2023/03/07 11:31:24;;;;;;;4.63;2.50;;;;;;;4.26;38.64;98136.75;5069345;28;20081;-36
2023/03/07 11:33:58;;;;;;;2.65;1.67;;;;;;;4.00;39.02;98150.47;5070318;28;20044;-35
2023/03/07 11:36:35;;;;;;;5.78;2.72;;;;;;;3.86;39.90;98137.22;5070166;28;20036;-35
2023/03/07 11:39:07;;;;;;;4.88;2.75;;;;;;;3.75;39.47;98111.03;5068311;28;20048;-37
2023/03/07 11:41:37;;;;;;;5.03;2.78;;;;;;;3.80;40.01;98160.56;5068346;28;20040;-38
2023/03/07 11:44:21;;;;;;;;;;;;;;;3.60;40.02;98137.22;5070570;28;20044;-38